createdAt,value
2022-12-22T07:01:12.489Z,0
2022-12-22T07:07:35.320Z,1
2022-12-22T07:13:55.360Z,3
2022-12-22T07:20:18.370Z,5
2022-12-22T07:26:38.358Z,12
2022-12-22T07:33:01.399Z,17
2022-12-22T07:39:21.403Z,31
2022-12-22T07:45:44.392Z,45
2022-12-22T07:52:04.356Z,74
2022-12-22T07:58:27.359Z,91
2022-12-22T08:04:47.533Z,97
2022-12-22T08:11:10.375Z,104
2022-12-22T08:17:30.453Z,131
2022-12-22T08:23:53.363Z,202
2022-12-22T08:30:13.343Z,309
2022-12-22T08:36:36.449Z,413
2022-12-22T08:42:56.324Z,165
2022-12-22T08:49:19.368Z,216
2022-12-22T08:55:39.396Z,237
2022-12-22T09:02:02.448Z,356
2022-12-22T09:08:22.370Z,241
2022-12-22T09:14:45.359Z,141
2022-12-22T09:21:05.374Z,340
2022-12-22T09:27:28.409Z,406
2022-12-22T09:33:48.388Z,334
2022-12-22T09:40:11.444Z,349
2022-12-22T09:46:31.839Z,301
2022-12-22T09:52:54.413Z,355
2022-12-22T09:59:14.368Z,244
2022-12-22T10:05:37.348Z,419
2022-12-22T10:11:57.391Z,510
2022-12-22T10:18:20.337Z,415
2022-12-22T10:24:40.417Z,1156
2022-12-22T10:31:03.426Z,1038
2022-12-22T10:37:23.351Z,1262
2022-12-22T10:43:46.361Z,896
2022-12-22T10:56:21.435Z,447
2022-12-22T11:02:41.422Z,401
2022-12-22T11:09:31.676Z,682
2022-12-22T11:15:25.083Z,731
2022-12-22T11:21:47.361Z,1386
2022-12-22T11:28:07.362Z,4040
2022-12-22T11:34:30.369Z,4218
2022-12-22T11:40:50.343Z,2802
2022-12-22T11:47:13.427Z,2389
2022-12-22T11:53:33.352Z,1654
2022-12-22T11:59:56.406Z,1117
2022-12-22T12:06:16.365Z,1415
2022-12-22T12:12:39.394Z,978
2022-12-22T12:35:44.886Z,1068
2022-12-22T12:42:04.333Z,875
2022-12-22T12:48:27.390Z,1024
2022-12-22T12:54:47.423Z,926
2022-12-22T13:01:10.372Z,527
2022-12-22T13:07:30.379Z,555
2022-12-22T13:13:53.511Z,624
2022-12-22T13:20:13.510Z,1061
2022-12-22T13:26:36.568Z,879
2022-12-22T13:32:56.610Z,1184
2022-12-22T13:39:19.359Z,1280
2022-12-22T13:45:39.369Z,899
2022-12-22T13:52:05.367Z,824
2022-12-22T13:58:22.380Z,718
2022-12-22T14:04:49.149Z,1512
2022-12-22T14:11:05.395Z,929
2022-12-22T14:17:28.355Z,718
2022-12-22T14:23:48.438Z,512
2022-12-22T14:30:11.387Z,435
2022-12-22T14:36:31.445Z,299
2022-12-22T14:42:54.332Z,231
2022-12-22T14:49:14.382Z,233
2022-12-22T14:55:37.441Z,273
2022-12-22T15:01:57.496Z,246
2022-12-22T15:08:20.427Z,169
2022-12-22T15:14:40.585Z,101
2022-12-22T15:21:12.108Z,64
2022-12-22T15:27:32.475Z,31
2022-12-22T15:33:55.372Z,16
2022-12-22T15:40:15.460Z,7
2022-12-22T15:46:38.462Z,4
2022-12-22T15:52:58.367Z,1
2022-12-22T15:59:21.376Z,1
2022-12-22T16:05:41.405Z,0
2022-12-22T16:12:04.439Z,0
2022-12-22T16:18:24.873Z,0
2022-12-22T16:24:47.452Z,0
2022-12-22T16:31:07.456Z,0
2022-12-22T16:37:30.386Z,0
2022-12-22T16:51:10.420Z,0
2022-12-22T16:57:30.339Z,0
2022-12-22T17:03:53.390Z,0
2022-12-22T17:10:13.398Z,0
2022-12-22T17:16:36.538Z,0
2022-12-22T17:22:56.373Z,0
2022-12-22T17:29:19.508Z,0
2022-12-22T17:35:39.421Z,0
2022-12-22T17:59:20.323Z,0
2022-12-22T18:05:43.637Z,0
2022-12-22T18:12:03.655Z,0
2022-12-22T18:18:26.415Z,0
2022-12-22T18:24:46.334Z,0
2022-12-22T18:31:09.418Z,0
2022-12-22T18:37:29.519Z,0
2022-12-22T18:43:52.404Z,0
2022-12-22T18:50:12.455Z,0
2022-12-22T18:56:35.393Z,0
2022-12-22T19:02:55.484Z,0
2022-12-22T19:09:18.357Z,0
2022-12-22T19:15:38.392Z,0
2022-12-22T19:22:01.348Z,0
2022-12-22T19:28:21.365Z,0
2022-12-22T19:34:44.406Z,0
2022-12-22T19:41:04.354Z,0
2022-12-22T19:47:27.407Z,0
2022-12-22T19:53:47.411Z,0
2022-12-22T20:00:10.338Z,0
2022-12-22T20:06:30.386Z,0
2022-12-22T20:12:53.354Z,0
2022-12-22T20:19:13.429Z,0
2022-12-22T20:25:36.351Z,0
2022-12-22T20:31:56.409Z,0
2022-12-22T20:38:19.392Z,0
2022-12-22T20:44:39.358Z,0
2022-12-22T20:51:02.519Z,0
2022-12-22T20:57:22.392Z,0
2022-12-22T21:03:45.475Z,0
2022-12-22T21:10:05.402Z,0
2022-12-22T21:16:28.386Z,0
2022-12-22T21:22:48.358Z,0
2022-12-22T21:29:11.408Z,0
2022-12-22T21:35:31.379Z,0
2022-12-22T21:41:54.414Z,0
2022-12-22T21:48:14.382Z,0
2022-12-22T21:54:37.345Z,0
2022-12-22T22:00:57.358Z,0
2022-12-22T22:07:20.349Z,0
2022-12-22T22:13:40.366Z,0
2022-12-22T22:20:03.377Z,0
2022-12-22T22:26:23.355Z,0
2022-12-22T22:32:46.465Z,0
2022-12-22T22:39:06.333Z,0
2022-12-22T22:45:29.503Z,0
2022-12-22T22:51:49.367Z,0
2022-12-22T22:58:12.367Z,0
2022-12-22T23:21:09.387Z,0
2022-12-22T23:27:29.321Z,0
